Time;durP1;ratioP1;P1;durP2;ratioP2;P2;SDS_P1;SDS_P2;PMS_P1;PMS_P2;Temp;Humidity;BMP_temperature;BMP_pressure;BME280_temperature;BME280_humidity;BME280_pressure;Samples;Min_cycle;Max_cycle;Signal;HPM_P1;HPM_P2
2022/04/14 00:00:07;;;;;;;19.17;9.13;;;13.00;1.00;;;;;;5074054;28;20410;-54
2022/04/14 00:02:33;;;;;;;15.80;8.98;;;12.90;1.00;;;;;;5086401;28;20382;-54
2022/04/14 00:04:58;;;;;;;15.98;8.38;;;12.90;90.50;;;;;;5088827;28;20389;-54
2022/04/14 00:07:24;;;;;;;16.30;9.80;;;12.90;99.90;;;;;;5089233;28;20740;-55
2022/04/14 00:09:50;;;;;;;16.33;9.00;;;12.80;99.90;;;;;;5088847;28;20378;-54
2022/04/14 00:12:16;;;;;;;14.50;8.10;;;12.70;1.00;;;;;;5083328;28;20440;-54
2022/04/14 00:14:42;;;;;;;13.32;8.30;;;12.60;1.00;;;;;;5089601;28;20378;-54
2022/04/14 00:17:08;;;;;;;16.13;8.80;;;12.50;99.90;;;;;;5086919;28;20859;-54
2022/04/14 00:19:34;;;;;;;17.23;8.80;;;12.40;1.00;;;;;;5069367;28;20453;-54
2022/04/14 00:22:00;;;;;;;18.90;8.37;;;12.30;1.00;;;;;;5081036;28;20417;-54
2022/04/14 00:24:26;;;;;;;15.90;9.00;;;12.20;99.90;;;;;;5074797;28;20729;-54
2022/04/14 00:26:51;;;;;;;16.13;9.02;;;12.10;1.00;;;;;;5071215;28;20976;-54
2022/04/14 00:29:17;;;;;;;15.43;9.20;;;12.00;99.90;;;;;;5073162;28;20852;-55
2022/04/14 00:31:43;;;;;;;14.97;8.87;;;11.90;99.90;;;;;;5073635;28;20391;-54
2022/04/14 00:34:10;;;;;;;15.50;9.30;;;11.80;99.90;;;;;;5072998;28;20380;-54
2022/04/14 00:36:35;;;;;;;16.10;9.27;;;11.70;1.00;;;;;;5082377;28;20498;-54
2022/04/14 00:39:01;;;;;;;15.77;8.87;;;11.60;1.00;;;;;;5091997;28;20494;-54
2022/04/14 00:41:27;;;;;;;17.15;9.40;;;11.60;99.90;;;;;;5083459;28;20395;-54
2022/04/14 00:43:54;;;;;;;18.60;9.40;;;11.60;99.90;;;;;;5071773;28;20462;-54
2022/04/14 00:46:20;;;;;;;18.45;9.05;;;11.60;99.90;;;;;;5088754;28;20393;-54
2022/04/14 00:48:48;;;;;;;16.27;9.05;;;11.60;99.90;;;;;;5092259;28;20883;-54
2022/04/14 00:51:13;;;;;;;13.60;7.97;;;11.70;99.90;;;;;;5075642;28;20510;-54
2022/04/14 00:53:39;;;;;;;17.77;8.35;;;11.70;99.90;;;;;;5072275;28;20506;-54
2022/04/14 00:56:06;;;;;;;13.90;8.10;;;11.80;99.90;;;;;;5087913;28;20390;-54
2022/04/14 00:58:32;;;;;;;15.20;9.00;;;11.90;99.90;;;;;;5075093;28;20948;-54
2022/04/14 01:00:58;;;;;;;14.98;7.13;;;12.00;1.00;;;;;;5076463;28;20388;-54
2022/04/14 01:03:24;;;;;;;13.70;7.30;;;12.00;99.90;;;;;;5072352;28;20740;-55
2022/04/14 01:05:52;;;;;;;12.95;7.40;;;12.00;99.90;;;;;;5067399;28;20402;-54
2022/04/14 01:08:19;;;;;;;15.57;7.50;;;12.00;99.90;;;;;;5092761;28;20406;-54
2022/04/14 01:10:49;;;;;;;14.35;7.20;;;12.00;99.90;;;;;;5079461;28;20395;-54
2022/04/14 01:13:15;;;;;;;13.02;6.38;;;12.00;47.90;;;;;;5076436;28;20394;-54
2022/04/14 01:15:42;;;;;;;11.70;6.30;;;12.10;1.00;;;;;;5080661;28;20402;-54
2022/04/14 01:18:08;;;;;;;15.95;7.35;;;12.10;1.00;;;;;;5071830;28;20499;-54
2022/04/14 01:20:35;;;;;;;12.60;7.20;;;12.10;99.90;;;;;;5066644;28;20500;-54
2022/04/14 01:23:03;;;;;;;13.07;6.82;;;12.20;1.00;;;;;;5057099;28;20498;-54
2022/04/14 01:25:30;;;;;;;15.07;6.88;;;12.20;1.00;;;;;;5070967;28;20384;-54
2022/04/14 01:27:56;;;;;;;12.83;7.27;;;12.20;99.90;;;;;;5071290;28;20450;-54
2022/04/14 01:30:22;;;;;;;11.80;7.00;;;12.20;99.90;;;;;;5070051;28;20791;-54
2022/04/14 01:32:48;;;;;;;14.13;7.15;;;12.30;99.90;;;;;;5051131;28;20374;-54
2022/04/14 01:35:14;;;;;;;14.15;7.22;;;12.30;40.20;;;;;;5052093;28;20469;-54
2022/04/14 01:37:39;;;;;;;15.97;6.90;;;12.20;99.90;;;;;;5071879;28;20479;-54
2022/04/14 01:40:07;;;;;;;14.10;7.20;;;12.20;99.90;;;;;;5059239;28;20381;-54
2022/04/14 01:42:33;;;;;;;13.00;7.40;;;12.20;99.90;;;;;;5051708;28;20401;-54
2022/04/14 01:44:59;;;;;;;14.07;7.03;;;12.10;99.90;;;;;;5060083;28;20380;-54
2022/04/14 01:47:25;;;;;;;17.95;7.70;;;12.10;99.90;;;;;;5071620;28;20430;-54
2022/04/14 01:49:51;;;;;;;14.50;6.45;;;12.10;99.90;;;;;;5062496;28;20468;-54
2022/04/14 01:52:18;;;;;;;15.95;7.28;;;12.10;99.90;;;;;;5051814;28;20416;-54
2022/04/14 01:54:43;;;;;;;11.23;6.60;;;12.10;99.90;;;;;;5059071;28;20392;-54
2022/04/14 01:57:09;;;;;;;14.80;7.50;;;12.00;99.90;;;;;;5070764;28;20380;-54
2022/04/14 01:59:35;;;;;;;13.97;7.43;;;11.80;99.90;;;;;;5070621;28;20384;-54
2022/04/14 02:02:01;;;;;;;14.30;7.32;;;11.70;1.00;;;;;;5070093;28;20471;-54
2022/04/14 02:04:26;;;;;;;14.68;8.10;;;11.60;1.00;;;;;;5066221;28;20834;-54
2022/04/14 02:06:52;;;;;;;12.13;7.55;;;11.50;99.90;;;;;;5050642;28;20423;-54
2022/04/14 02:09:18;;;;;;;15.30;8.60;;;11.50;1.00;;;;;;5052132;28;20394;-54
2022/04/14 02:11:43;;;;;;;14.32;8.00;;;11.50;22.60;;;;;;5051314;28;20382;-54
2022/04/14 02:14:09;;;;;;;13.30;8.23;;;11.50;99.90;;;;;;5052956;28;20944;-54
2022/04/14 02:16:35;;;;;;;14.63;8.10;;;11.50;99.90;;;;;;5071228;28;20733;-54
2022/04/14 02:19:00;;;;;;;18.57;9.20;;;11.50;99.90;;;;;;5068956;28;20384;-54
2022/04/14 02:21:26;;;;;;;18.63;9.80;;;11.40;99.90;;;;;;5064240;28;20438;-54
2022/04/14 02:23:52;;;;;;;13.60;8.55;;;11.50;99.90;;;;;;5070333;28;20368;-54
2022/04/14 02:26:19;;;;;;;16.93;9.23;;;11.50;99.90;;;;;;5072171;28;20398;-54
2022/04/14 02:28:45;;;;;;;13.80;8.80;;;11.50;99.90;;;;;;5070994;28;20440;-54
2022/04/14 02:31:10;;;;;;;17.50;9.38;;;11.60;99.90;;;;;;5078983;28;20434;-54
2022/04/14 02:33:36;;;;;;;17.37;9.10;;;11.60;99.90;;;;;;5090681;28;20895;-54
2022/04/14 02:36:02;;;;;;;18.13;9.80;;;11.70;1.00;;;;;;5090357;28;20778;-55
2022/04/14 02:38:27;;;;;;;14.67;9.67;;;11.80;1.00;;;;;;5077620;28;20475;-55
2022/04/14 02:40:53;;;;;;;17.27;9.63;;;11.90;99.90;;;;;;5069466;28;20410;-54
2022/04/14 02:43:19;;;;;;;15.60;9.73;;;11.90;99.90;;;;;;5070601;28;20392;-54
2022/04/14 02:45:44;;;;;;;20.30;10.17;;;11.90;99.90;;;;;;5070615;28;20376;-54
2022/04/14 02:48:10;;;;;;;18.17;10.00;;;11.90;99.90;;;;;;5079922;28;20938;-54
2022/04/14 02:50:37;;;;;;;17.87;10.20;;;11.90;1.00;;;;;;5089598;28;20390;-55
2022/04/14 02:53:03;;;;;;;19.75;10.80;;;12.00;1.00;;;;;;5079723;28;20430;-54
2022/04/14 02:55:29;;;;;;;21.83;10.67;;;12.00;1.00;;;;;;5070083;28;20407;-54
2022/04/14 02:57:56;;;;;;;18.92;10.80;;;12.10;1.00;;;;;;5077102;28;20398;-54
2022/04/14 03:00:23;;;;;;;20.95;10.60;;;12.10;99.90;;;;;;5088556;28;20804;-54
2022/04/14 03:02:49;;;;;;;18.23;10.73;;;12.20;99.90;;;;;;5089606;28;20787;-54
2022/04/14 03:05:14;;;;;;;20.80;11.20;;;12.20;99.90;;;;;;5090094;28;20895;-54
2022/04/14 03:07:40;;;;;;;24.80;11.63;;;12.30;99.90;;;;;;5088087;28;20779;-54
2022/04/14 03:10:07;;;;;;;21.03;12.10;;;12.40;99.90;;;;;;5084831;28;20921;-54
2022/04/14 03:12:40;;;;;;;21.63;11.45;;;12.30;99.90;;;;;;5079393;28;20437;-54
2022/04/14 03:15:06;;;;;;;21.17;11.75;;;12.30;99.90;;;;;;5086137;28;20509;-54
2022/04/14 03:17:32;;;;;;;26.17;12.83;;;12.40;99.90;;;;;;5077676;28;20929;-55
2022/04/14 03:19:57;;;;;;;20.63;12.52;;;12.30;99.90;;;;;;5073770;28;20402;-55
2022/04/14 03:22:23;;;;;;;22.27;14.43;;;12.30;1.00;;;;;;5060906;28;20417;-54
2022/04/14 03:24:49;;;;;;;23.73;14.68;;;12.30;1.00;;;;;;5058674;28;20443;-54
2022/04/14 03:27:14;;;;;;;26.65;15.50;;;12.30;1.00;;;;;;5038928;28;20505;-54
2022/04/14 03:29:41;;;;;;;28.23;16.23;;;12.30;1.00;;;;;;5060300;28;20388;-54
2022/04/14 03:32:07;;;;;;;28.35;17.65;;;12.30;1.00;;;;;;5062540;28;20883;-54
2022/04/14 03:34:32;;;;;;;30.70;18.40;;;12.40;1.00;;;;;;5036110;28;20411;-54
2022/04/14 03:36:58;;;;;;;32.58;20.70;;;12.40;1.00;;;;;;5061244;28;20386;-54
2022/04/14 03:39:24;;;;;;;32.53;19.67;;;12.40;1.00;;;;;;5059801;28;20885;-54
2022/04/14 03:41:49;;;;;;;32.40;20.85;;;12.40;1.00;;;;;;5064811;28;20486;-53
2022/04/14 03:44:15;;;;;;;32.60;19.70;;;12.40;1.00;;;;;;5059347;28;20400;-54
2022/04/14 03:46:41;;;;;;;34.13;20.60;;;12.50;1.00;;;;;;5042544;28;20416;-54
2022/04/14 03:49:08;;;;;;;35.85;21.42;;;12.50;1.00;;;;;;5055584;28;20887;-54
2022/04/14 03:51:34;;;;;;;33.60;20.80;;;12.60;1.00;;;;;;5064722;28;20536;-54
2022/04/14 03:53:59;;;;;;;35.67;21.02;;;12.50;1.00;;;;;;5065895;28;20925;-54
2022/04/14 03:56:25;;;;;;;39.22;21.15;;;12.60;1.00;;;;;;5055305;28;20401;-54
2022/04/14 03:58:51;;;;;;;36.70;21.97;;;12.60;1.00;;;;;;5062353;28;20931;-54
2022/04/14 04:01:16;;;;;;;36.45;22.88;;;12.60;1.00;;;;;;5068259;28;20447;-54
2022/04/14 04:03:42;;;;;;;38.30;22.60;;;12.60;1.00;;;;;;5067390;28;20467;-54
2022/04/14 04:06:08;;;;;;;38.27;23.57;;;12.60;1.00;;;;;;5070104;28;20387;-54
2022/04/14 04:08:34;;;;;;;35.83;22.37;;;12.50;1.00;;;;;;5068482;28;20438;-54
2022/04/14 04:11:00;;;;;;;36.55;22.73;;;12.50;1.00;;;;;;5059266;28;20874;-54
2022/04/14 04:13:25;;;;;;;40.07;23.63;;;12.50;1.00;;;;;;5070290;28;20415;-54
2022/04/14 04:15:51;;;;;;;40.83;23.60;;;12.50;1.00;;;;;;5054474;28;20395;-54
2022/04/14 04:18:17;;;;;;;46.00;25.90;;;12.40;1.00;;;;;;5071678;28;20922;-54
2022/04/14 04:20:43;;;;;;;47.20;25.48;;;12.30;1.00;;;;;;5072785;28;20447;-54
2022/04/14 04:23:08;;;;;;;47.07;25.30;;;12.40;2.40;;;;;;5046474;28;20978;-55
2022/04/14 04:25:34;;;;;;;45.97;27.10;;;12.30;3.20;;;;;;5053192;28;20416;-54
2022/04/14 04:28:00;;;;;;;40.77;25.97;;;12.40;1.00;;;;;;5058512;28;20415;-54
2022/04/14 04:30:26;;;;;;;44.95;26.00;;;12.40;1.00;;;;;;5062490;28;20403;-54
2022/04/14 04:32:51;;;;;;;47.37;26.73;;;12.30;1.00;;;;;;5053769;28;20885;-53
2022/04/14 04:35:17;;;;;;;42.85;26.35;;;12.20;1.00;;;;;;5069326;28;20768;-53
2022/04/14 04:37:43;;;;;;;46.33;27.33;;;12.30;1.00;;;;;;5054776;28;21271;-53
2022/04/14 04:40:09;;;;;;;49.45;28.92;;;12.20;1.00;;;;;;5072109;28;20830;-54
2022/04/14 04:42:35;;;;;;;48.67;30.45;;;12.30;1.00;;;;;;5068862;28;20393;-53
2022/04/14 04:45:00;;;;;;;49.00;30.00;;;12.30;1.00;;;;;;5051818;28;20400;-53
2022/04/14 04:47:26;;;;;;;47.83;29.27;;;12.20;1.00;;;;;;5054035;28;20499;-55
2022/04/14 04:49:52;;;;;;;47.00;28.80;;;12.30;1.00;;;;;;5071368;28;20395;-54
2022/04/14 04:52:18;;;;;;;49.03;29.25;;;12.30;3.50;;;;;;5070715;28;20771;-53
2022/04/14 04:54:44;;;;;;;47.80;29.93;;;12.30;9.10;;;;;;5070611;28;20442;-53
2022/04/14 04:57:10;;;;;;;55.85;30.60;;;12.30;21.70;;;;;;5070270;28;20570;-53
2022/04/14 04:59:35;;;;;;;51.78;30.90;;;12.40;18.50;;;;;;5071807;28;20382;-53
2022/04/14 05:02:01;;;;;;;57.50;32.17;;;12.40;22.70;;;;;;5051838;28;20384;-53
2022/04/14 05:04:27;;;;;;;54.72;32.67;;;12.50;33.10;;;;;;5063266;28;20445;-53
2022/04/14 05:06:52;;;;;;;54.13;32.63;;;12.50;41.90;;;;;;5052544;28;20568;-53
2022/04/14 05:09:18;;;;;;;54.53;32.20;;;12.50;38.60;;;;;;5034224;28;20464;-53
2022/04/14 05:11:44;;;;;;;52.58;31.33;;;12.60;42.80;;;;;;5068386;28;20426;-53
2022/04/14 05:14:10;;;;;;;55.30;30.57;;;12.80;15.80;;;;;;5068776;28;20400;-53
2022/04/14 05:16:36;;;;;;;52.80;31.55;;;12.80;15.90;;;;;;5071774;28;20376;-53
2022/04/14 05:19:02;;;;;;;52.85;29.67;;;12.90;1.10;;;;;;5044484;28;20944;-53
2022/04/14 05:21:28;;;;;;;50.05;30.33;;;12.90;1.00;;;;;;5051376;28;20395;-53
2022/04/14 05:23:54;;;;;;;47.35;29.27;;;13.10;1.00;;;;;;5061573;28;20939;-53
2022/04/14 05:26:20;;;;;;;45.55;28.85;;;13.30;1.00;;;;;;5072249;28;20380;-54
2022/04/14 05:28:45;;;;;;;47.10;29.80;;;13.40;1.00;;;;;;5055740;28;20475;-53
2022/04/14 05:31:11;;;;;;;50.33;30.35;;;13.50;1.00;;;;;;5050804;28;20633;-53
2022/04/14 05:33:37;;;;;;;47.27;28.70;;;13.60;99.90;;;;;;5066141;28;20392;-54
2022/04/14 05:36:03;;;;;;;51.45;31.58;;;13.70;99.90;;;;;;5070900;28;20387;-53
2022/04/14 05:38:28;;;;;;;47.90;28.00;;;13.80;99.90;;;;;;5039836;28;20732;-54
2022/04/14 05:40:55;;;;;;;41.75;27.13;;;14.30;99.90;;;;;;5050882;28;20377;-54
2022/04/14 05:43:25;;;;;;;43.97;28.33;;;14.50;99.90;;;;;;5052459;28;20405;-54
2022/04/14 05:45:52;;;;;;;40.30;25.87;;;14.70;99.90;;;;;;5051039;28;20465;-56
2022/04/14 05:48:18;;;;;;;39.00;25.80;;;14.90;99.90;;;;;;5059598;28;20898;-56
2022/04/14 05:50:49;;;;;;;39.83;26.38;;;15.10;99.90;;;;;;5053892;28;20432;-57
2022/04/14 05:53:16;;;;;;;40.90;25.40;;;15.30;99.90;;;;;;5070692;28;20395;-55
2022/04/14 05:55:42;;;;;;;40.93;24.83;;;15.50;99.90;;;;;;5068611;28;20388;-55
2022/04/14 05:58:08;;;;;;;39.08;24.33;;;15.50;99.90;;;;;;5050791;28;20386;-55
2022/04/14 06:00:37;;;;;;;35.60;24.67;;;15.60;99.90;;;;;;5052457;28;20456;-55
2022/04/14 06:03:03;;;;;;;37.45;24.88;;;15.80;99.90;;;;;;5050445;28;20850;-55
2022/04/14 06:05:30;;;;;;;37.63;24.10;;;16.10;99.90;;;;;;5060487;28;20843;-56
2022/04/14 06:07:56;;;;;;;35.13;24.10;;;16.50;99.90;;;;;;5061948;28;20414;-53
2022/04/14 06:10:23;;;;;;;37.00;23.35;;;17.10;99.90;;;;;;5044524;28;20715;-53
2022/04/14 06:12:49;;;;;;;34.90;22.90;;;17.20;99.90;;;;;;5069379;28;20388;-53
2022/04/14 06:15:15;;;;;;;35.15;24.15;;;17.30;99.90;;;;;;5060389;28;20491;-55
2022/04/14 06:17:42;;;;;;;36.92;23.42;;;17.30;99.90;;;;;;5059116;28;20439;-56
2022/04/14 06:20:08;;;;;;;36.47;23.63;;;17.40;99.90;;;;;;5057883;28;20395;-55
2022/04/14 06:22:41;;;;;;;34.50;23.20;;;17.40;99.90;;;;;;5078704;28;20402;-54
2022/04/14 06:25:12;;;;;;;34.33;21.65;;;17.70;99.90;;;;;;5070988;28;20441;-53
2022/04/14 06:27:40;;;;;;;34.33;22.80;;;17.60;99.90;;;;;;5081498;28;20421;-54
2022/04/14 06:30:09;;;;;;;34.00;22.35;;;17.70;99.90;;;;;;5070598;28;20407;-53
2022/04/14 06:32:35;;;;;;;32.13;22.05;;;17.60;99.90;;;;;;5071648;28;20871;-54
2022/04/14 06:35:01;;;;;;;29.63;20.48;;;18.20;99.90;;;;;;5088513;28;20386;-54
2022/04/14 06:37:27;;;;;;;31.37;22.13;;;18.60;99.90;;;;;;5090477;28;20382;-56
2022/04/14 06:39:52;;;;;;;30.08;21.05;;;18.90;99.90;;;;;;5084519;28;20477;-54
2022/04/14 06:42:22;;;;;;;32.88;21.80;;;19.40;99.90;;;;;;5090154;28;20378;-54
2022/04/14 06:44:48;;;;;;;30.67;20.65;;;19.00;99.90;;;;;;5090534;28;20398;-54
2022/04/14 06:47:13;;;;;;;33.55;21.58;;;19.50;99.90;;;;;;5071624;28;20401;-55
2022/04/14 06:49:39;;;;;;;31.63;21.40;;;19.60;99.90;;;;;;5089044;28;20411;-54
2022/04/14 06:52:05;;;;;;;36.50;21.23;;;19.50;99.90;;;;;;5074258;28;20861;-54
2022/04/14 06:54:31;;;;;;;31.38;21.00;;;20.10;99.90;;;;;;5078788;28;20458;-57
2022/04/14 06:56:57;;;;;;;30.07;20.90;;;20.80;99.90;;;;;;5070484;28;20863;-57
2022/04/14 06:59:22;;;;;;;31.63;20.77;;;20.80;99.90;;;;;;5082576;28;20889;-57
2022/04/14 07:01:48;;;;;;;32.35;21.00;;;20.90;99.90;;;;;;5070225;28;20403;-56
2022/04/14 07:04:13;;;;;;;29.83;19.98;;;21.40;99.90;;;;;;5082309;28;20947;-57
2022/04/14 07:06:39;;;;;;;32.90;21.75;;;21.60;99.90;;;;;;5083342;28;20722;-57
2022/04/14 07:09:05;;;;;;;32.90;20.17;;;21.00;99.90;;;;;;5073036;28;20547;-54
2022/04/14 07:11:30;;;;;;;31.33;21.10;;;20.50;99.90;;;;;;5069499;28;20372;-54
2022/04/14 07:13:58;;;;;;;29.43;19.80;;;20.70;99.90;;;;;;5088794;28;20782;-55
2022/04/14 07:16:25;;;;;;;31.77;21.00;;;20.90;99.90;;;;;;5089059;28;20754;-55
2022/04/14 07:18:50;;;;;;;30.47;20.00;;;20.90;99.90;;;;;;5090198;28;20386;-55
2022/04/14 07:21:17;;;;;;;28.90;20.15;;;21.10;99.90;;;;;;5088717;28;20413;-54
2022/04/14 07:23:43;;;;;;;28.20;19.00;;;;;;;;;;5089803;28;20382;-55
2022/04/14 07:26:09;;;;;;;28.80;20.50;;;22.70;99.90;;;;;;5085600;28;20372;-55
2022/04/14 07:28:35;;;;;;;29.47;21.83;;;22.70;99.90;;;;;;5069622;28;20419;-54
2022/04/14 07:31:02;;;;;;;34.42;19.98;;;22.50;99.90;;;;;;5070007;28;20380;-55
2022/04/14 07:33:27;;;;;;;27.52;18.50;;;22.30;99.90;;;;;;5080685;28;20866;-55
2022/04/14 07:35:53;;;;;;;26.38;18.45;;;23.30;99.90;;;;;;5085629;28;20463;-55
2022/04/14 07:38:19;;;;;;;25.80;20.17;;;23.60;99.90;;;;;;5080251;28;20415;-56
2022/04/14 07:40:45;;;;;;;26.05;20.30;;;24.00;99.90;;;;;;5073478;28;20479;-55
2022/04/14 07:43:11;;;;;;;30.13;22.50;;;24.30;99.90;;;;;;5077104;28;20398;-55
2022/04/14 07:45:39;;;;;;;26.23;21.03;;;24.00;99.70;;;;;;5070400;28;20445;-56
2022/04/14 07:48:05;;;;;;;27.13;20.75;;;23.60;99.90;;;;;;5073061;28;20411;-55
2022/04/14 07:50:32;;;;;;;30.08;22.05;;;23.70;99.40;;;;;;5051625;28;20396;-55
2022/04/14 07:52:59;;;;;;;30.58;21.00;;;23.60;99.90;;;;;;5068300;28;20903;-55
2022/04/14 07:55:30;;;;;;;29.63;21.30;;;23.90;99.20;;;;;;5079672;28;20874;-55
2022/04/14 07:57:57;;;;;;;29.35;20.42;;;23.70;99.20;;;;;;5085730;28;20477;-55
2022/04/14 08:00:24;;;;;;;28.52;20.42;;;23.60;99.90;;;;;;5069744;28;20392;-55
2022/04/14 08:02:53;;;;;;;31.17;21.33;;;23.60;99.90;;;;;;5052393;28;21248;-55
2022/04/14 08:05:20;;;;;;;27.13;20.20;;;22.80;99.90;;;;;;5080352;28;20379;-54
2022/04/14 08:07:46;;;;;;;26.75;19.92;;;23.30;99.90;;;;;;5080450;28;20415;-54
2022/04/14 08:10:12;;;;;;;31.63;19.90;;;23.10;99.90;;;;;;5068828;28;20398;-55
2022/04/14 08:12:38;;;;;;;28.70;20.73;;;22.80;99.90;;;;;;5084074;28;20453;-57
2022/04/14 08:15:04;;;;;;;26.67;20.08;;;21.80;99.90;;;;;;5086633;28;20389;-57
2022/04/14 08:17:32;;;;;;;33.08;20.70;;;22.30;99.90;;;;;;5078783;28;20891;-56
2022/04/14 08:19:58;;;;;;;30.52;20.15;;;22.40;99.90;;;;;;5068044;28;20483;-56
2022/04/14 08:22:24;;;;;;;27.48;20.08;;;22.70;99.90;;;;;;5069069;28;20948;-56
2022/04/14 08:24:50;;;;;;;27.92;20.15;;;22.50;99.90;;;;;;5069503;28;20430;-56
2022/04/14 08:27:18;;;;;;;29.40;20.60;;;22.70;99.90;;;;;;5070852;28;20953;-57
2022/04/14 08:29:43;;;;;;;32.40;20.15;;;23.60;99.90;;;;;;5069252;28;20469;-58
2022/04/14 08:32:10;;;;;;;31.07;19.93;;;24.50;99.90;;;;;;5068526;28;20391;-58
2022/04/14 08:34:36;;;;;;;28.20;20.95;;;24.50;99.90;;;;;;5069264;28;20371;-57
2022/04/14 08:37:02;;;;;;;26.33;21.42;;;25.20;99.90;;;;;;5075110;28;20391;-58
2022/04/14 08:39:29;;;;;;;31.23;20.80;;;25.40;99.90;;;;;;5068982;28;20387;-57
2022/04/14 08:42:08;;;;;;;27.02;21.42;;;;;;;;;;5068801;28;20408;-57
2022/04/14 08:44:40;;;;;;;25.42;20.88;;;25.10;99.90;;;;;;5068838;28;20830;-58
2022/04/14 08:47:08;;;;;;;26.38;21.10;;;24.90;99.90;;;;;;5068739;28;20383;-61
2022/04/14 08:49:34;;;;;;;29.50;20.42;;;25.50;99.90;;;;;;5084699;28;20414;-58
2022/04/14 08:52:01;;;;;;;28.48;20.67;;;25.90;99.90;;;;;;5091951;28;20735;-58
2022/04/14 08:54:27;;;;;;;25.92;20.85;;;26.00;99.90;;;;;;5074588;28;20791;-59
2022/04/14 08:56:58;;;;;;;23.27;18.00;;;26.30;99.90;;;;;;5092738;28;20727;-58
2022/04/14 08:59:24;;;;;;;25.37;20.93;;;26.40;99.90;;;;;;5092482;28;20382;-59
2022/04/14 09:01:51;;;;;;;23.30;18.83;;;27.30;99.90;;;;;;5092397;28;20385;-59
2022/04/14 09:04:17;;;;;;;28.60;25.70;;;27.80;99.90;;;;;;5091603;28;20445;-59
2022/04/14 09:06:43;;;;;;;27.70;21.03;;;27.90;99.30;;;;;;5065425;28;20394;-54
2022/04/14 09:09:09;;;;;;;26.77;21.20;;;27.00;99.70;;;;;;5091359;28;20414;-55
2022/04/14 09:11:34;;;;;;;26.65;20.98;;;27.10;99.90;;;;;;5073130;28;20398;-54
2022/04/14 09:14:01;;;;;;;24.85;20.75;;;26.70;98.60;;;;;;5078913;28;20471;-54
2022/04/14 09:16:29;;;;;;;23.83;19.43;;;26.60;99.30;;;;;;5091090;28;20723;-54
2022/04/14 09:18:55;;;;;;;24.92;20.25;;;27.20;99.90;;;;;;5080102;28;20398;-54
2022/04/14 09:21:21;;;;;;;27.38;21.02;;;27.90;98.00;;;;;;5090173;28;20918;-54
2022/04/14 09:23:54;;;;;;;25.35;20.75;;;27.50;98.30;;;;;;5083670;28;20387;-54
2022/04/14 09:26:24;;;;;;;27.13;19.88;;;27.30;98.60;;;;;;5078388;28;20410;-54
2022/04/14 09:29:08;;;;;;;25.80;20.65;;;27.40;98.40;;;;;;5080464;28;20435;-54
2022/04/14 09:31:54;;;;;;;26.40;20.40;;;26.70;97.60;;;;;;5075930;28;20423;-54
2022/04/14 09:34:51;;;;;;;27.42;19.60;;;27.20;99.30;;;;;;5070789;28;20399;-55
2022/04/14 09:37:18;;;;;;;24.87;19.90;;;26.90;98.40;;;;;;5051557;28;20388;-55
2022/04/14 09:40:08;;;;;;;26.17;19.50;;;27.60;99.90;;;;;;5071268;28;20461;-55
2022/04/14 09:42:38;;;;;;;26.05;20.77;;;28.50;97.30;;;;;;5071640;28;20475;-56
2022/04/14 09:45:21;;;;;;;28.38;22.35;;;28.00;97.30;;;;;;5070600;28;20402;-55
2022/04/14 09:47:48;;;;;;;25.37;20.60;;;28.40;96.20;;;;;;5071557;28;20403;-56
2022/04/14 09:50:24;;;;;;;24.70;20.40;;;28.10;95.40;;;;;;5070649;28;20384;-55
2022/04/14 09:53:05;;;;;;;25.97;21.93;;;27.30;96.10;;;;;;5071060;28;20941;-55
2022/04/14 09:55:31;;;;;;;27.02;19.35;;;26.80;96.20;;;;;;5071640;28;20414;-55
2022/04/14 09:58:13;;;;;;;25.75;21.42;;;27.40;96.10;;;;;;5078414;28;20405;-55
2022/04/14 10:00:47;;;;;;;24.95;21.08;;;27.50;95.50;;;;;;5080138;28;20403;-55
2022/04/14 10:03:14;;;;;;;28.70;20.48;;;27.20;95.80;;;;;;5073396;28;20478;-55
2022/04/14 10:05:41;;;;;;;24.90;21.13;;;27.20;96.20;;;;;;5087594;28;20427;-55
2022/04/14 10:08:08;;;;;;;23.85;18.52;;;27.20;96.00;;;;;;5081436;28;20470;-55
2022/04/14 10:10:38;;;;;;;23.23;20.73;;;27.10;97.30;;;;;;5079618;28;20402;-55
2022/04/14 10:13:09;;;;;;;23.27;19.70;;;27.00;96.30;;;;;;5074082;28;20388;-55
2022/04/14 10:15:38;;;;;;;24.30;21.00;;;27.70;96.00;;;;;;5091162;28;20386;-55
2022/04/14 10:18:09;;;;;;;24.35;21.75;;;27.60;95.90;;;;;;5090540;28;20435;-56
2022/04/14 10:20:39;;;;;;;27.08;20.40;;;27.90;95.00;;;;;;5090807;28;20413;-55
2022/04/14 10:23:07;;;;;;;23.15;19.38;;;27.60;94.80;;;;;;5090102;28;20828;-55
2022/04/14 10:25:36;;;;;;;26.70;21.70;;;27.70;94.80;;;;;;5086494;28;20402;-55
2022/04/14 10:28:03;;;;;;;24.70;20.73;;;28.10;94.90;;;;;;5081781;28;20825;-55
2022/04/14 10:30:30;;;;;;;25.30;21.42;;;28.00;94.50;;;;;;5085098;28;20378;-55
2022/04/14 10:32:57;;;;;;;25.83;20.00;;;27.10;94.90;;;;;;5080950;28;20387;-55
2022/04/14 10:35:27;;;;;;;23.02;19.58;;;26.40;95.10;;;;;;5086106;28;21246;-55
2022/04/14 10:38:01;;;;;;;24.15;19.85;;;27.40;94.50;;;;;;5084787;28;20407;-55
2022/04/14 10:40:29;;;;;;;24.35;19.08;;;28.20;92.90;;;;;;5085091;28;20382;-55
2022/04/14 10:42:56;;;;;;;27.80;21.60;;;27.30;92.70;;;;;;5084844;28;20673;-55
2022/04/14 10:45:23;;;;;;;25.17;19.10;;;26.00;93.80;;;;;;5082386;28;20887;-55
2022/04/14 10:47:56;;;;;;;28.13;20.40;;;25.90;94.60;;;;;;5084411;28;20401;-56
2022/04/14 10:50:23;;;;;;;25.13;19.55;;;26.40;93.60;;;;;;5085581;28;20649;-54
2022/04/14 10:53:06;;;;;;;25.40;20.30;;;25.80;93.70;;;;;;5083389;28;20386;-54
2022/04/14 10:55:43;;;;;;;27.17;19.45;;;25.20;95.60;;;;;;5080277;28;20405;-55
2022/04/14 10:58:27;;;;;;;26.13;19.43;;;25.10;96.10;;;;;;5081309;28;20716;-54
2022/04/14 11:00:54;;;;;;;25.52;19.77;;;25.40;96.00;;;;;;5079437;28;20446;-54
2022/04/14 11:03:20;;;;;;;31.52;21.77;;;26.00;95.30;;;;;;5084977;28;20481;-54
2022/04/14 11:05:49;;;;;;;25.65;20.33;;;25.80;95.20;;;;;;5059150;28;20428;-54
2022/04/14 11:08:24;;;;;;;24.45;19.05;;;25.90;95.30;;;;;;5060093;28;20422;-54
2022/04/14 11:10:54;;;;;;;26.90;19.27;;;25.90;95.40;;;;;;5078146;28;20390;-54
2022/04/14 11:13:20;;;;;;;25.13;19.10;;;25.70;95.50;;;;;;5059206;28;20544;-55
2022/04/14 11:15:46;;;;;;;25.85;19.95;;;25.40;95.80;;;;;;5083058;28;21227;-55
2022/04/14 11:18:11;;;;;;;26.43;20.50;;;25.10;96.20;;;;;;5081156;28;20399;-54
2022/04/14 11:20:44;;;;;;;25.47;20.03;;;24.80;96.60;;;;;;5067652;28;20483;-55
2022/04/14 11:23:20;;;;;;;24.73;18.60;;;24.70;96.90;;;;;;5081833;28;20385;-55
2022/04/14 11:25:51;;;;;;;22.85;18.30;;;25.10;96.40;;;;;;5064220;28;20394;-55
2022/04/14 11:28:33;;;;;;;21.98;18.27;;;25.20;96.10;;;;;;5076602;28;20902;-55
2022/04/14 11:31:17;;;;;;;23.35;18.50;;;25.20;95.30;;;;;;5080780;28;20394;-55
2022/04/14 11:33:44;;;;;;;28.60;19.70;;;25.00;95.40;;;;;;5080122;28;20380;-55
2022/04/14 11:36:15;;;;;;;23.75;18.98;;;24.60;96.10;;;;;;5080881;28;20377;-55
2022/04/14 11:38:59;;;;;;;23.23;18.23;;;24.60;96.50;;;;;;5082693;28;20458;-55
2022/04/14 11:41:37;;;;;;;23.20;18.42;;;25.00;96.20;;;;;;5079537;28;20382;-54
2022/04/14 11:44:04;;;;;;;21.38;16.48;;;25.40;96.00;;;;;;5079237;28;20443;-54
2022/04/14 11:46:31;;;;;;;25.33;17.45;;;25.80;93.60;;;;;;5079735;28;20481;-54
2022/04/14 11:49:01;;;;;;;24.60;17.77;;;25.60;1.00;;;;;;5084402;28;20893;-55
2022/04/14 11:51:27;;;;;;;22.73;18.90;;;25.10;1.00;;;;;;5082607;28;20418;-54
2022/04/14 11:53:55;;;;;;;21.70;17.52;;;24.80;1.00;;;;;;5080710;28;20852;-55
2022/04/14 11:56:22;;;;;;;23.65;17.48;;;24.90;1.00;;;;;;5081713;28;20385;-58
2022/04/14 11:58:48;;;;;;;24.17;18.60;;;24.70;1.00;;;;;;5081677;28;20383;-54
2022/04/14 12:01:14;;;;;;;27.93;18.70;;;24.80;1.00;;;;;;5079248;28;20459;-55
2022/04/14 12:03:41;;;;;;;22.55;17.17;;;24.80;1.00;;;;;;5082858;28;20382;-55
2022/04/14 12:06:10;;;;;;;26.38;16.45;;;25.00;1.00;;;;;;5082682;28;20401;-55
2022/04/14 12:08:37;;;;;;;22.77;17.60;;;25.30;1.00;;;;;;5082590;28;20894;-55
2022/04/14 12:11:17;;;;;;;21.23;16.17;;;25.40;1.00;;;;;;5075000;28;20434;-55
2022/04/14 12:13:43;;;;;;;22.15;15.88;;;25.60;1.00;;;;;;5081127;28;20389;-54
2022/04/14 12:16:11;;;;;;;24.40;16.20;;;25.80;1.00;;;;;;5083141;28;20895;-55
2022/04/14 12:18:39;;;;;;;21.83;16.50;;;25.70;1.00;;;;;;5063567;28;20394;-54
2022/04/14 12:21:06;;;;;;;22.58;17.70;;;25.60;1.00;;;;;;5069640;28;20754;-54
2022/04/14 12:23:33;;;;;;;22.88;17.17;;;25.00;1.00;;;;;;5064801;28;20461;-53
2022/04/14 12:26:00;;;;;;;24.73;16.33;;;24.80;1.00;;;;;;5063717;28;20773;-54
2022/04/14 12:28:26;;;;;;;25.80;18.35;;;25.20;1.00;;;;;;5040289;28;20929;-55
2022/04/14 12:30:52;;;;;;;24.50;18.20;;;24.30;1.00;;;;;;5059750;28;20460;-55
2022/04/14 12:33:26;;;;;;;21.63;16.33;;;24.30;1.00;;;;;;5058138;28;20459;-56